Terminal Aerodrome Forecast
Issued by NWS Wilmington, NC

Home | Current Version | Previous Version | Text Only | Print | Product List | Glossary On
Versions: 1 2 3 4 5 6 7 8 9 10 11 12 13 14 15 16
000
FTUS42 KILM 301224 CCA
TAFFLO
TAF COR
KFLO 301224Z 3012/3112 00000KT P6SM SKC
     FM301500 VRB04KT P6SM SCT250
     FM302000 07006KT P6SM VCTS SCT050CB BKN250
     FM310000 15004KT P6SM SCT250=

USA.gov is the U.S. government's official web portal to all federal, state and local government web resources and services.